createdAt,value
2019-06-27T03:59:12.513Z,64.10
2019-06-27T04:01:58.176Z,63.20
2019-06-27T04:04:53.140Z,63.30
2019-06-27T04:07:47.483Z,63.70
2019-06-27T04:10:42.397Z,63.80
2019-06-27T04:13:37.309Z,63.70
2019-06-27T04:16:32.154Z,64.00
2019-06-27T04:19:27.152Z,64.00
2019-06-27T04:22:22.793Z,64.00
2019-06-27T04:25:16.790Z,63.90
2019-06-27T04:28:10.316Z,63.70
2019-06-27T04:31:04.217Z,63.70
2019-06-27T04:33:58.061Z,63.70
2019-06-27T04:36:52.343Z,63.80
2019-06-27T04:39:52.528Z,63.90
2019-06-27T04:42:49.021Z,64.00
2019-06-27T04:45:43.498Z,63.70
2019-06-27T04:48:38.725Z,63.70
2019-06-27T04:51:34.683Z,63.70
2019-06-27T04:54:30.539Z,63.50
2019-06-27T04:57:25.749Z,63.50
2019-06-27T05:00:22.007Z,63.40
2019-06-27T05:03:15.916Z,63.50
2019-06-27T05:06:12.416Z,63.40
2019-06-27T05:09:07.402Z,63.30
2019-06-27T05:12:01.601Z,63.30
2019-06-27T05:14:56.290Z,63.20
2019-06-27T05:17:51.035Z,63.20
2019-06-27T05:20:44.779Z,63.60
2019-06-27T05:23:39.523Z,63.50
2019-06-27T05:26:35.533Z,63.60
2019-06-27T05:29:34.549Z,63.30
2019-06-27T05:32:30.365Z,62.90
2019-06-27T05:35:25.086Z,63.20
2019-06-27T05:38:20.915Z,63.00
2019-06-27T05:41:16.787Z,63.60
2019-06-27T05:44:12.100Z,63.40
2019-06-27T05:47:05.581Z,63.40
2019-06-27T05:50:00.856Z,63.20
2019-06-27T05:52:55.292Z,63.20
2019-06-27T05:55:49.949Z,63.50
2019-06-27T05:58:45.952Z,60.40
2019-06-27T06:01:44.416Z,59.60
2019-06-27T06:04:38.180Z,59.50
2019-06-27T06:10:20.877Z,56.10
2019-06-27T06:13:26.448Z,53.30
2019-06-27T06:16:23.720Z,52.10
2019-06-27T06:22:12.258Z,49.30
2019-06-27T06:25:06.722Z,48.20
2019-06-27T06:27:59.769Z,47.90
2019-06-27T06:30:56.721Z,47.70
2019-06-27T06:33:50.262Z,47.60
2019-06-27T06:36:47.687Z,47.60
2019-06-27T06:39:44.984Z,47.50
2019-06-27T06:42:46.284Z,47.50
2019-06-27T06:45:41.066Z,47.50
2019-06-27T06:48:37.538Z,47.60
2019-06-27T06:51:34.329Z,47.40
2019-06-27T06:54:31.385Z,46.90
2019-06-27T06:57:27.368Z,46.50
2019-06-27T07:00:26.795Z,47.30
2019-06-27T07:03:26.343Z,46.90
2019-06-27T07:06:20.177Z,46.50
2019-06-27T07:09:15.189Z,46.90
2019-06-27T07:12:14.057Z,46.30
2019-06-27T07:15:11.676Z,46.30
2019-06-27T07:18:05.567Z,46.00
2019-06-27T07:21:01.606Z,46.50
2019-06-27T07:23:58.213Z,46.70
2019-06-27T07:26:55.471Z,46.70
2019-06-27T07:29:49.848Z,46.50
2019-06-27T07:32:43.787Z,46.60
2019-06-27T07:35:39.861Z,46.60
2019-06-27T07:38:34.623Z,46.40
2019-06-27T07:41:29.732Z,46.40
2019-06-27T07:44:25.444Z,46.00
2019-06-27T07:47:28.176Z,46.30
2019-06-27T07:50:26.984Z,46.10
2019-06-27T07:53:21.325Z,46.60
2019-06-27T07:56:17.211Z,46.60
2019-06-27T07:59:15.529Z,46.90
2019-06-27T08:02:16.272Z,46.30
2019-06-27T08:05:10.239Z,46.20
2019-06-27T08:08:06.017Z,46.60
2019-06-27T08:11:03.136Z,46.50
2019-06-27T08:13:59.979Z,46.40
2019-06-27T08:16:57.007Z,46.60
2019-06-27T08:19:55.086Z,46.90
2019-06-27T08:22:51.952Z,46.60
2019-06-27T08:25:46.828Z,46.30
2019-06-27T08:28:43.729Z,46.30
2019-06-27T08:31:50.879Z,46.30
2019-06-27T08:34:38.170Z,46.80
2019-06-27T08:37:33.444Z,47.00
2019-06-27T08:40:30.282Z,46.80
2019-06-27T08:43:24.359Z,46.90
2019-06-27T08:46:18.631Z,47.00
2019-06-27T08:49:14.188Z,47.30
2019-06-27T08:52:09.239Z,47.30
2019-06-27T08:55:05.180Z,47.40
2019-06-27T08:57:59.939Z,47.20
2019-06-27T09:00:53.698Z,47.30
2019-06-27T09:03:48.611Z,47.30
2019-06-27T09:06:43.392Z,46.80
2019-06-27T09:09:39.926Z,46.80
2019-06-27T09:12:34.282Z,50.00
2019-06-27T09:15:26.988Z,52.20
2019-06-27T09:18:20.418Z,53.00
2019-06-27T09:21:17.722Z,53.60
2019-06-27T09:24:11.346Z,54.10
2019-06-27T09:27:04.336Z,54.40
2019-06-27T09:29:58.198Z,55.80
2019-06-27T09:32:53.590Z,56.10
2019-06-27T09:35:46.799Z,56.30
2019-06-27T09:38:42.677Z,56.00
2019-06-27T09:41:36.463Z,54.70
2019-06-27T09:44:30.935Z,53.10
2019-06-27T09:47:26.929Z,52.60
2019-06-27T09:50:23.042Z,52.10
2019-06-27T09:53:16.688Z,51.60
2019-06-27T09:56:10.494Z,51.40
2019-06-27T09:59:13.315Z,51.40
2019-06-27T10:02:09.759Z,51.70
2019-06-27T10:05:05.885Z,51.40
2019-06-27T10:08:02.094Z,51.00
2019-06-27T10:10:56.891Z,51.00
2019-06-27T10:14:01.744Z,50.60
2019-06-27T10:17:01.040Z,50.20
2019-06-27T10:19:58.581Z,50.10
2019-06-27T10:22:53.758Z,49.90
2019-06-27T10:25:49.647Z,50.10
2019-06-27T10:28:43.913Z,50.20
2019-06-27T10:31:42.186Z,55.40
2019-06-27T10:34:37.268Z,56.90
2019-06-27T10:37:31.678Z,58.00
2019-06-27T10:40:26.557Z,58.50
2019-06-27T10:43:20.887Z,59.00
2019-06-27T10:46:16.502Z,59.30
2019-06-27T10:49:16.469Z,60.00
2019-06-27T10:52:35.898Z,60.20
2019-06-27T10:55:30.998Z,60.50
2019-06-27T10:58:28.806Z,60.80
2019-06-27T11:01:22.132Z,60.80
2019-06-27T11:04:17.015Z,60.90
2019-06-27T11:07:13.315Z,61.30
2019-06-27T11:10:09.022Z,61.20
2019-06-27T11:13:04.004Z,61.20
2019-06-27T11:15:59.912Z,61.10
2019-06-27T11:18:55.235Z,61.00
2019-06-27T11:21:49.362Z,61.20
2019-06-27T11:24:44.374Z,61.20
2019-06-27T11:27:38.918Z,61.00
2019-06-27T11:30:33.549Z,61.00
2019-06-27T11:33:32.678Z,61.00
2019-06-27T11:36:23.926Z,60.90
2019-06-27T11:39:23.143Z,60.90
2019-06-27T11:42:23.242Z,60.70
2019-06-27T11:45:19.680Z,60.50
2019-06-27T11:48:14.555Z,60.30
2019-06-27T11:51:13.452Z,60.20
2019-06-27T11:54:09.723Z,60.10
2019-06-27T11:57:05.202Z,60.20
2019-06-27T12:00:01.604Z,60.20
2019-06-27T12:02:57.708Z,60.10
2019-06-27T12:05:52.226Z,59.90
2019-06-27T12:08:47.739Z,59.90
2019-06-27T12:11:43.684Z,59.90
2019-06-27T12:14:40.062Z,59.90
2019-06-27T12:17:35.854Z,59.70
2019-06-27T12:20:31.067Z,59.70
2019-06-27T12:23:25.756Z,59.40
2019-06-27T12:26:19.861Z,59.40
2019-06-27T12:29:16.973Z,59.50
2019-06-27T12:32:13.270Z,59.40
2019-06-27T12:35:14.734Z,59.30
2019-06-27T12:38:09.190Z,59.40
2019-06-27T12:41:04.040Z,59.50
2019-06-27T12:43:58.362Z,59.50
2019-06-27T12:46:55.014Z,59.40
2019-06-27T12:50:01.491Z,59.30
2019-06-27T12:52:44.486Z,59.30
2019-06-27T12:55:39.863Z,59.20
2019-06-27T12:58:34.906Z,59.30
2019-06-27T13:01:30.063Z,59.50
2019-06-27T13:04:24.559Z,59.60
2019-06-27T13:07:20.654Z,59.70
2019-06-27T13:10:15.373Z,59.80
2019-06-27T13:13:09.893Z,59.80
2019-06-27T13:16:05.547Z,59.80
2019-06-27T13:18:59.392Z,59.90
2019-06-27T13:21:53.585Z,60.00
2019-06-27T13:24:47.277Z,60.20
2019-06-27T13:30:34.221Z,60.30
2019-06-27T13:33:29.243Z,60.50
2019-06-27T13:36:22.547Z,60.50
2019-06-27T13:39:17.086Z,60.60
2019-06-27T13:42:13.297Z,60.50
2019-06-27T13:45:07.491Z,60.50
2019-06-27T13:48:01.746Z,60.50
2019-06-27T13:50:57.747Z,60.50
2019-06-27T13:53:51.670Z,60.60
2019-06-27T13:56:46.387Z,60.50
2019-06-27T13:59:41.911Z,60.30
2019-06-27T14:02:35.527Z,60.20
2019-06-27T14:05:28.974Z,60.00
2019-06-27T14:08:25.199Z,60.20
2019-06-27T14:11:17.505Z,60.20
2019-06-27T14:14:12.146Z,60.20
2019-06-27T14:17:06.822Z,60.30
2019-06-27T14:20:00.022Z,60.10
2019-06-27T14:22:53.755Z,60.00
2019-06-27T14:25:48.068Z,60.10
2019-06-27T14:28:42.915Z,60.00
